Time;durP1;ratioP1;P1;durP2;ratioP2;P2;SDS_P1;SDS_P2;PMS_P1;PMS_P2;Temp;Humidity;BMP_temperature;BMP_pressure;BME280_temperature;BME280_humidity;BME280_pressure;Samples;Min_cycle;Max_cycle;Signal;HPM_P1;HPM_P2
2023/12/09 00:01:06;;;;;;;10.17;7.23;;;12.20;92.00;;;;;;5078353;28;20458;-65
2023/12/09 00:03:33;;;;;;;11.77;8.17;;;12.30;92.10;;;;;;5085578;28;20445;-65
2023/12/09 00:06:02;;;;;;;13.37;8.40;;;12.20;92.00;;;;;;5088196;28;20465;-65
2023/12/09 00:08:29;;;;;;;16.07;9.90;;;12.30;92.10;;;;;;5070219;28;20838;-64
2023/12/09 00:10:55;;;;;;;20.80;11.57;;;12.30;92.10;;;;;;5097659;28;20805;-64
2023/12/09 00:13:22;;;;;;;18.13;12.50;;;12.20;92.00;;;;;;5076991;28;20475;-64
2023/12/09 00:15:49;;;;;;;15.77;11.23;;;12.20;92.30;;;;;;5070077;28;20454;-64
2023/12/09 00:18:16;;;;;;;17.33;11.23;;;12.20;92.40;;;;;;5070352;28;20943;-65
2023/12/09 00:20:43;;;;;;;16.37;11.77;;;12.20;92.50;;;;;;5069595;28;20471;-64
2023/12/09 00:23:12;;;;;;;16.17;11.20;;;12.20;92.50;;;;;;5080913;28;20683;-65
2023/12/09 00:25:39;;;;;;;19.43;11.70;;;12.30;92.50;;;;;;5073686;28;20463;-65
2023/12/09 00:28:06;;;;;;;14.10;11.37;;;12.20;92.50;;;;;;5084072;28;20534;-64
2023/12/09 00:30:34;;;;;;;17.27;12.27;;;12.30;92.50;;;;;;5080466;28;20446;-65
2023/12/09 00:33:01;;;;;;;18.03;11.97;;;12.20;92.50;;;;;;5079881;28;20477;-65
2023/12/09 00:35:28;;;;;;;17.87;13.50;;;12.30;92.50;;;;;;5078912;28;20951;-65
2023/12/09 00:37:55;;;;;;;18.43;13.90;;;12.30;92.50;;;;;;5074465;28;20530;-64
2023/12/09 00:40:23;;;;;;;19.43;14.77;;;12.30;92.50;;;;;;5082201;28;20455;-64
2023/12/09 00:42:50;;;;;;;18.30;15.50;;;12.20;92.70;;;;;;5069944;28;20419;-64
2023/12/09 00:45:17;;;;;;;22.10;15.60;;;12.00;92.90;;;;;;5070598;28;20466;-64
2023/12/09 00:47:44;;;;;;;18.43;14.03;;;12.00;93.00;;;;;;5085183;28;20950;-64
2023/12/09 00:50:11;;;;;;;23.27;15.13;;;12.10;93.10;;;;;;5081281;28;20438;-64
2023/12/09 00:52:38;;;;;;;19.40;14.47;;;12.10;93.30;;;;;;5088491;28;20454;-64
2023/12/09 00:55:06;;;;;;;20.63;14.57;;;12.10;93.10;;;;;;5074659;28;20927;-64
2023/12/09 00:57:34;;;;;;;22.67;15.27;;;12.00;93.20;;;;;;5073857;28;20449;-64
2023/12/09 01:00:01;;;;;;;21.77;15.30;;;12.00;93.30;;;;;;5076418;28;20442;-64
2023/12/09 01:02:28;;;;;;;20.67;15.17;;;11.90;93.30;;;;;;5073157;28;20440;-64
2023/12/09 01:04:54;;;;;;;20.10;14.30;;;12.00;93.70;;;;;;5075996;28;20430;-64
2023/12/09 01:07:21;;;;;;;18.40;14.60;;;12.00;93.30;;;;;;5089347;28;20439;-64
2023/12/09 01:09:48;;;;;;;20.10;16.67;;;12.10;93.60;;;;;;5090762;28;20808;-64
2023/12/09 01:12:15;;;;;;;22.83;17.77;;;12.00;93.30;;;;;;5096144;28;20490;-64
2023/12/09 01:14:43;;;;;;;21.47;15.87;;;11.90;93.40;;;;;;5083653;28;20478;-64
2023/12/09 01:17:10;;;;;;;18.93;16.10;;;11.90;93.50;;;;;;5087704;28;20448;-64
2023/12/09 01:19:37;;;;;;;19.53;15.37;;;11.80;93.60;;;;;;5087308;28;20524;-64
2023/12/09 01:22:04;;;;;;;17.57;15.63;;;11.90;93.70;;;;;;5087213;28;20458;-65
2023/12/09 01:24:31;;;;;;;19.13;14.47;;;11.90;93.50;;;;;;5081793;28;20439;-65
2023/12/09 01:26:58;;;;;;;23.57;15.90;;;11.90;93.50;;;;;;5074587;28;20458;-65
2023/12/09 01:29:24;;;;;;;18.80;14.83;;;11.90;93.60;;;;;;5101416;28;20988;-65
2023/12/09 01:31:53;;;;;;;25.40;15.50;;;11.90;93.60;;;;;;5086430;28;20446;-65
2023/12/09 01:34:19;;;;;;;21.57;15.87;;;11.90;93.90;;;;;;5075144;28;21056;-65
2023/12/09 01:36:46;;;;;;;19.97;15.37;;;11.90;93.40;;;;;;5086113;28;20497;-65
2023/12/09 01:39:13;;;;;;;19.90;14.27;;;12.00;93.40;;;;;;5084962;28;20453;-63
2023/12/09 01:41:40;;;;;;;24.50;14.90;;;12.00;93.30;;;;;;5088750;28;20964;-64
2023/12/09 01:44:07;;;;;;;20.73;14.90;;;12.00;93.20;;;;;;5088703;28;20459;-64
2023/12/09 01:46:35;;;;;;;19.50;14.40;;;12.10;93.50;;;;;;5088248;28;20449;-65
2023/12/09 01:49:03;;;;;;;18.37;14.43;;;12.10;93.10;;;;;;5088859;28;20445;-65
2023/12/09 01:51:30;;;;;;;22.93;14.53;;;12.10;93.10;;;;;;5077174;28;20864;-65
2023/12/09 01:53:57;;;;;;;19.17;14.53;;;12.10;93.10;;;;;;5081679;28;20486;-65
2023/12/09 01:56:25;;;;;;;20.63;14.50;;;12.10;93.10;;;;;;5084486;28;20441;-65
2023/12/09 01:58:52;;;;;;;16.90;12.83;;;12.10;92.90;;;;;;5091131;28;20451;-64
2023/12/09 02:01:19;;;;;;;16.37;13.40;;;12.10;92.90;;;;;;5079606;28;20450;-65
2023/12/09 02:03:46;;;;;;;20.33;14.17;;;12.10;92.90;;;;;;5088422;28;20949;-65
2023/12/09 02:06:14;;;;;;;17.60;14.10;;;12.10;92.80;;;;;;5088696;28;20542;-65
2023/12/09 02:08:41;;;;;;;17.03;13.80;;;12.10;92.80;;;;;;5088669;28;20441;-65
2023/12/09 02:11:18;;;;;;;19.43;14.43;;;12.10;92.70;;;;;;5082951;28;20443;-65
2023/12/09 02:13:54;;;;;;;19.43;13.87;;;12.10;92.70;;;;;;5067944;28;20486;-64
2023/12/09 02:16:27;;;;;;;16.77;13.23;;;12.10;92.70;;;;;;5075696;28;20464;-65
2023/12/09 02:18:57;;;;;;;17.17;13.67;;;12.10;93.00;;;;;;5081892;28;20439;-65
2023/12/09 02:21:25;;;;;;;19.80;14.33;;;12.00;92.70;;;;;;5061803;28;20472;-65
2023/12/09 02:23:53;;;;;;;20.33;13.87;;;12.00;92.60;;;;;;5086636;28;20949;-65
2023/12/09 02:26:25;;;;;;;16.40;13.27;;;12.10;92.50;;;;;;5085814;28;20438;-64
2023/12/09 02:28:57;;;;;;;19.23;13.87;;;12.00;92.50;;;;;;5088681;28;20795;-65
2023/12/09 02:31:30;;;;;;;21.03;13.53;;;12.00;92.50;;;;;;5069080;28;20447;-65
2023/12/09 02:34:00;;;;;;;16.77;12.77;;;11.90;92.60;;;;;;5079899;28;20996;-64
2023/12/09 02:36:29;;;;;;;18.33;13.77;;;11.90;92.70;;;;;;5088295;28;20438;-64
2023/12/09 02:38:58;;;;;;;17.67;13.83;;;11.80;92.80;;;;;;5088342;28;21014;-64
2023/12/09 02:41:25;;;;;;;16.37;13.53;;;11.80;92.60;;;;;;5076307;28;20806;-65
2023/12/09 02:43:52;;;;;;;15.63;12.60;;;11.90;92.60;;;;;;5081790;28;20459;-65
2023/12/09 02:46:23;;;;;;;17.37;12.90;;;11.90;92.50;;;;;;5080405;28;20455;-65
2023/12/09 02:48:50;;;;;;;17.13;12.80;;;11.90;92.40;;;;;;5088133;28;20458;-65
2023/12/09 02:51:18;;;;;;;18.37;12.97;;;11.90;92.30;;;;;;5087621;28;20466;-65
2023/12/09 02:53:45;;;;;;;19.67;13.53;;;11.90;92.20;;;;;;5088993;28;20488;-65
2023/12/09 02:56:13;;;;;;;19.27;13.03;;;11.90;92.20;;;;;;5079838;28;20463;-65
2023/12/09 02:58:42;;;;;;;18.10;13.87;;;11.90;92.00;;;;;;5073765;28;20445;-65
2023/12/09 03:01:09;;;;;;;19.00;12.50;;;11.90;91.90;;;;;;5081699;28;20443;-65
2023/12/09 03:03:36;;;;;;;17.17;13.53;;;11.90;91.90;;;;;;5075871;28;20791;-64
2023/12/09 03:06:03;;;;;;;18.03;12.53;;;11.90;91.90;;;;;;5091494;28;20462;-64
2023/12/09 03:08:30;;;;;;;18.30;12.30;;;11.90;91.90;;;;;;5092067;28;20449;-64
2023/12/09 03:10:56;;;;;;;17.10;12.73;;;11.90;91.90;;;;;;5091541;28;20446;-64
2023/12/09 03:13:26;;;;;;;16.80;13.03;;;11.90;91.90;;;;;;5084264;28;20821;-65
2023/12/09 03:15:53;;;;;;;16.90;12.47;;;11.90;91.90;;;;;;5084217;28;20888;-64
2023/12/09 03:18:20;;;;;;;19.70;13.30;;;11.80;91.80;;;;;;5078738;28;20451;-64
2023/12/09 03:20:47;;;;;;;20.60;14.57;;;11.90;92.10;;;;;;5083154;28;20442;-64
2023/12/09 03:23:13;;;;;;;16.97;13.53;;;11.90;91.80;;;;;;5088558;28;20478;-64
2023/12/09 03:25:41;;;;;;;17.23;12.67;;;11.90;91.80;;;;;;5038169;28;20426;-64
2023/12/09 03:28:07;;;;;;;16.77;12.27;;;11.80;91.80;;;;;;5039207;28;20435;-65
2023/12/09 03:30:35;;;;;;;18.13;13.37;;;11.80;91.70;;;;;;5079972;28;21092;-65
2023/12/09 03:33:02;;;;;;;16.53;12.10;;;11.80;91.60;;;;;;5075342;28;20441;-65
2023/12/09 03:35:29;;;;;;;16.23;12.27;;;11.80;91.50;;;;;;5071582;28;20487;-64
2023/12/09 03:37:56;;;;;;;17.47;12.67;;;11.80;91.50;;;;;;5071663;28;20821;-66
2023/12/09 03:40:23;;;;;;;19.73;11.97;;;11.80;91.30;;;;;;5072617;28;20447;-65
2023/12/09 03:42:49;;;;;;;17.50;13.30;;;11.80;91.30;;;;;;5091123;28;20442;-65
2023/12/09 03:45:15;;;;;;;14.80;12.47;;;11.80;91.50;;;;;;5079133;28;20467;-65
2023/12/09 03:47:44;;;;;;;17.63;12.57;;;11.80;91.50;;;;;;5091259;28;20449;-63
2023/12/09 03:50:11;;;;;;;18.80;12.43;;;11.80;91.50;;;;;;5090985;28;20468;-64
2023/12/09 03:52:37;;;;;;;15.60;12.10;;;11.90;91.40;;;;;;5088613;28;20459;-64
2023/12/09 03:55:06;;;;;;;13.93;11.47;;;11.80;91.30;;;;;;5081353;28;20486;-65
2023/12/09 03:57:33;;;;;;;17.47;12.47;;;11.80;91.20;;;;;;5089955;28;20443;-64
2023/12/09 04:00:00;;;;;;;17.50;13.17;;;11.80;91.20;;;;;;5085249;28;20526;-64
2023/12/09 04:02:26;;;;;;;15.90;12.20;;;11.80;91.30;;;;;;5039477;28;20839;-64
2023/12/09 04:04:55;;;;;;;16.33;12.30;;;11.80;91.40;;;;;;5093214;28;20438;-65
2023/12/09 04:07:22;;;;;;;17.43;13.07;;;11.80;91.50;;;;;;5090503;28;20478;-62
2023/12/09 04:09:49;;;;;;;15.93;11.73;;;11.80;91.50;;;;;;5086753;28;20451;-65
2023/12/09 04:12:16;;;;;;;15.53;11.70;;;11.80;91.50;;;;;;5075894;28;20992;-65
2023/12/09 04:14:42;;;;;;;18.23;12.90;;;11.80;91.40;;;;;;5086738;28;20520;-65
2023/12/09 04:17:10;;;;;;;18.43;14.07;;;11.80;91.40;;;;;;5099493;28;21001;-65
2023/12/09 04:19:37;;;;;;;19.57;15.23;;;11.80;91.40;;;;;;5075453;28;20444;-64
2023/12/09 04:22:06;;;;;;;19.07;13.80;;;11.80;91.60;;;;;;5076203;28;20477;-65
2023/12/09 04:24:33;;;;;;;16.63;14.20;;;11.70;91.60;;;;;;5080463;28;20447;-65
2023/12/09 04:27:00;;;;;;;17.47;13.80;;;11.80;91.70;;;;;;5056757;28;20896;-64
2023/12/09 04:29:27;;;;;;;20.70;14.17;;;11.70;91.80;;;;;;5090462;28;20439;-64
2023/12/09 04:31:57;;;;;;;18.00;13.17;;;11.70;91.80;;;;;;5090444;28;20435;-64
2023/12/09 04:34:24;;;;;;;18.60;13.07;;;11.70;91.80;;;;;;5091068;28;20625;-64
2023/12/09 04:36:50;;;;;;;19.63;14.17;;;11.70;91.80;;;;;;5089004;28;20944;-64
2023/12/09 04:39:18;;;;;;;18.47;13.20;;;11.70;91.80;;;;;;5090250;28;20442;-64
2023/12/09 04:41:48;;;;;;;17.57;14.00;;;11.60;91.80;;;;;;5073000;28;20836;-65
2023/12/09 04:44:14;;;;;;;22.27;13.70;;;11.70;91.90;;;;;;5088739;28;20532;-65
2023/12/09 04:46:42;;;;;;;17.17;13.57;;;11.70;91.90;;;;;;5089724;28;20669;-65
2023/12/09 04:49:09;;;;;;;22.63;13.50;;;11.70;91.80;;;;;;5079419;28;20467;-65
2023/12/09 04:51:36;;;;;;;21.30;14.60;;;11.70;91.80;;;;;;5086509;28;20454;-65
2023/12/09 04:54:03;;;;;;;18.27;13.23;;;11.70;91.80;;;;;;5096349;28;20546;-65
2023/12/09 04:56:33;;;;;;;19.40;13.57;;;11.80;91.90;;;;;;5082512;28;20958;-65
2023/12/09 04:59:02;;;;;;;15.80;12.70;;;11.80;91.90;;;;;;5045586;28;20626;-64
2023/12/09 05:01:29;;;;;;;17.47;12.57;;;11.70;91.80;;;;;;5080995;28;20458;-65
2023/12/09 05:03:56;;;;;;;19.07;13.80;;;11.80;91.90;;;;;;5100036;28;20821;-64
2023/12/09 05:06:23;;;;;;;23.60;13.57;;;11.80;91.90;;;;;;5104787;28;20446;-64
2023/12/09 05:08:50;;;;;;;19.40;13.87;;;11.80;91.90;;;;;;5079206;28;21028;-64
2023/12/09 05:11:17;;;;;;;17.60;13.00;;;11.80;91.90;;;;;;5073521;28;20903;-65
2023/12/09 05:13:49;;;;;;;19.70;13.37;;;11.80;91.90;;;;;;5085358;28;20450;-65
2023/12/09 05:16:16;;;;;;;18.57;13.47;;;11.70;92.10;;;;;;5083369;28;20486;-65
2023/12/09 05:18:42;;;;;;;17.10;13.47;;;11.80;92.00;;;;;;5085606;28;20446;-65
2023/12/09 05:21:09;;;;;;;20.93;14.23;;;11.80;92.00;;;;;;5075094;28;20454;-65
2023/12/09 05:23:36;;;;;;;18.33;14.20;;;11.80;92.00;;;;;;5083905;28;20463;-65
2023/12/09 05:26:03;;;;;;;18.70;13.90;;;11.80;92.10;;;;;;5065079;28;20450;-64
2023/12/09 05:28:31;;;;;;;17.90;13.80;;;11.80;92.10;;;;;;5089216;28;20919;-64
2023/12/09 05:30:59;;;;;;;19.97;14.00;;;11.80;92.10;;;;;;5090696;28;20934;-65
2023/12/09 05:33:27;;;;;;;22.80;14.03;;;11.80;92.20;;;;;;5105656;28;20442;-65
2023/12/09 05:35:54;;;;;;;16.73;12.37;;;11.80;92.10;;;;;;5096049;28;20502;-65
2023/12/09 05:38:21;;;;;;;17.83;13.50;;;11.80;92.10;;;;;;5089346;28;20805;-65
2023/12/09 05:40:47;;;;;;;23.23;13.33;;;11.90;92.10;;;;;;5089191;28;20448;-65
2023/12/09 05:43:15;;;;;;;18.20;13.57;;;11.80;92.00;;;;;;5088288;28;20522;-65
2023/12/09 05:45:41;;;;;;;19.73;14.60;;;11.90;92.00;;;;;;5098475;28;20465;-64
2023/12/09 05:48:10;;;;;;;18.17;14.20;;;11.80;92.00;;;;;;5085983;28;20456;-65
2023/12/09 05:50:37;;;;;;;19.13;14.87;;;11.90;92.00;;;;;;5035613;28;20444;-64
2023/12/09 05:53:04;;;;;;;20.00;13.53;;;11.90;92.00;;;;;;5082368;28;20854;-65
2023/12/09 05:55:31;;;;;;;19.23;13.30;;;11.90;92.00;;;;;;5095589;28;20496;-64
2023/12/09 05:57:58;;;;;;;20.07;14.60;;;11.80;92.00;;;;;;5089901;28;20831;-65
2023/12/09 06:00:25;;;;;;;22.53;14.60;;;11.80;92.10;;;;;;5079936;28;20474;-64
2023/12/09 06:02:52;;;;;;;20.73;14.00;;;11.70;92.20;;;;;;5088306;28;20828;-64
2023/12/09 06:05:20;;;;;;;19.93;14.10;;;11.70;92.30;;;;;;5069874;28;20626;-64
2023/12/09 06:07:46;;;;;;;19.13;14.33;;;11.70;92.30;;;;;;5068532;28;20462;-65
2023/12/09 06:10:13;;;;;;;21.70;14.37;;;11.70;92.30;;;;;;5076235;28;20967;-65
2023/12/09 06:12:41;;;;;;;22.80;14.73;;;11.70;92.20;;;;;;5018709;28;20509;-65
2023/12/09 06:15:08;;;;;;;19.60;13.77;;;11.80;92.20;;;;;;5070899;28;20479;-65
2023/12/09 06:17:35;;;;;;;16.27;12.23;;;11.80;92.10;;;;;;5085738;28;20480;-65
2023/12/09 06:20:05;;;;;;;19.10;13.53;;;11.80;92.10;;;;;;5089037;28;20435;-65
2023/12/09 06:22:33;;;;;;;19.70;13.77;;;11.80;92.10;;;;;;5084656;28;20451;-64
2023/12/09 06:25:00;;;;;;;18.63;13.30;;;11.80;92.00;;;;;;5090209;28;20953;-64
2023/12/09 06:27:27;;;;;;;18.20;12.30;;;11.70;92.00;;;;;;5077218;28;20449;-65
2023/12/09 06:29:54;;;;;;;21.20;12.73;;;11.80;92.10;;;;;;5072338;28;20475;-64
2023/12/09 06:32:21;;;;;;;19.47;12.80;;;11.80;92.00;;;;;;5090567;28;20446;-65
2023/12/09 06:34:47;;;;;;;15.70;10.77;;;11.70;92.00;;;;;;5095112;28;20485;-65
2023/12/09 06:37:14;;;;;;;15.77;11.97;;;11.80;92.00;;;;;;5094497;28;20457;-65
2023/12/09 06:39:44;;;;;;;16.87;11.03;;;11.80;92.00;;;;;;5094590;28;20443;-65
2023/12/09 06:42:11;;;;;;;15.80;10.23;;;11.80;91.90;;;;;;5093686;28;20450;-65
2023/12/09 06:44:38;;;;;;;13.30;10.30;;;11.80;91.90;;;;;;5104067;28;20472;-66
2023/12/09 06:47:06;;;;;;;15.30;9.73;;;11.80;91.90;;;;;;5094427;28;20470;-65
2023/12/09 06:49:34;;;;;;;13.40;8.03;;;11.80;91.90;;;;;;5091661;28;20451;-65
2023/12/09 06:52:01;;;;;;;14.70;9.33;;;11.80;91.90;;;;;;5111129;28;20831;-65
2023/12/09 06:54:30;;;;;;;12.90;8.17;;;11.70;91.80;;;;;;5102411;28;20446;-64
2023/12/09 06:56:58;;;;;;;14.10;8.87;;;11.80;91.90;;;;;;5058703;28;20441;-64
2023/12/09 06:59:26;;;;;;;11.17;7.93;;;11.80;91.90;;;;;;5092591;28;20470;-64
2023/12/09 07:01:57;;;;;;;10.97;7.83;;;11.80;91.90;;;;;;5088710;28;20560;-65
2023/12/09 07:04:24;;;;;;;10.33;6.83;;;11.80;91.90;;;;;;5114621;28;20437;-65
2023/12/09 07:06:50;;;;;;;11.73;7.27;;;11.80;91.90;;;;;;5106812;28;20489;-65
2023/12/09 07:09:17;;;;;;;9.27;7.07;;;11.90;91.70;;;;;;5093775;28;20452;-65
2023/12/09 07:11:44;;;;;;;10.60;7.33;;;11.90;91.60;;;;;;5095534;28;20448;-64
2023/12/09 07:14:15;;;;;;;9.00;6.90;;;11.90;91.60;;;;;;5108724;28;20447;-65
2023/12/09 07:16:41;;;;;;;9.63;7.03;;;11.90;91.60;;;;;;5053596;28;20485;-65
2023/12/09 07:19:08;;;;;;;12.17;7.83;;;12.00;91.60;;;;;;5093295;28;21114;-65
2023/12/09 07:21:35;;;;;;;12.00;7.40;;;11.90;91.50;;;;;;5090723;28;20447;-66
2023/12/09 07:24:02;;;;;;;10.97;6.63;;;11.90;91.50;;;;;;5088697;28;20447;-64
2023/12/09 07:26:29;;;;;;;11.17;7.03;;;12.00;91.40;;;;;;5091792;28;20956;-65
2023/12/09 07:28:56;;;;;;;9.03;6.67;;;11.90;91.40;;;;;;5094218;28;20451;-65
2023/12/09 07:31:24;;;;;;;8.33;6.67;;;11.90;91.50;;;;;;5092368;28;20538;-65
2023/12/09 07:33:51;;;;;;;11.70;6.97;;;11.90;91.50;;;;;;5085573;28;20978;-65
2023/12/09 07:36:19;;;;;;;12.50;7.00;;;11.90;91.40;;;;;;5093398;28;20486;-65
2023/12/09 07:38:46;;;;;;;12.23;6.93;;;11.90;91.40;;;;;;5092835;28;20492;-64
2023/12/09 07:41:14;;;;;;;10.07;7.00;;;11.90;91.40;;;;;;5084484;28;20467;-64
2023/12/09 07:43:41;;;;;;;9.03;6.30;;;11.90;91.40;;;;;;5074657;28;20508;-64
2023/12/09 07:46:08;;;;;;;6.90;5.97;;;11.90;91.40;;;;;;5092024;28;20531;-65
2023/12/09 07:48:36;;;;;;;9.50;6.43;;;11.90;91.30;;;;;;5092514;28;20509;-64
2023/12/09 07:51:03;;;;;;;7.77;5.80;;;12.00;91.30;;;;;;5094641;28;20452;-66
2023/12/09 07:53:30;;;;;;;8.87;5.90;;;12.00;91.30;;;;;;5109690;28;20556;-65
2023/12/09 07:55:58;;;;;;;8.10;6.10;;;12.00;91.30;;;;;;5050712;28;20499;-64
2023/12/09 07:58:24;;;;;;;7.47;6.23;;;12.00;91.20;;;;;;5088242;28;20451;-65
2023/12/09 08:00:51;;;;;;;10.43;6.70;;;12.00;91.20;;;;;;5088390;28;20458;-65
2023/12/09 08:03:18;;;;;;;7.47;6.47;;;12.00;91.50;;;;;;5126151;28;21060;-65
2023/12/09 08:05:47;;;;;;;8.30;6.83;;;12.00;91.20;;;;;;5127612;28;20461;-65
2023/12/09 08:08:17;;;;;;;9.33;5.93;;;12.00;91.20;;;;;;5108365;28;20554;-66
2023/12/09 08:10:45;;;;;;;7.47;5.37;;;12.00;90.90;;;;;;5037622;28;20495;-65
2023/12/09 08:13:12;;;;;;;7.20;4.90;;;12.00;90.80;;;;;;5077196;28;20451;-65
2023/12/09 08:15:39;;;;;;;6.50;4.53;;;12.00;90.70;;;;;;5078405;28;20470;-64
2023/12/09 08:18:06;;;;;;;9.10;5.13;;;12.00;90.80;;;;;;5093866;28;21037;-64
2023/12/09 08:20:34;;;;;;;6.87;4.37;;;12.00;90.70;;;;;;5091105;28;20460;-65
2023/12/09 08:23:04;;;;;;;8.10;4.10;;;12.00;90.40;;;;;;5091800;28;20922;-65
2023/12/09 08:25:31;;;;;;;6.07;3.73;;;12.00;90.50;;;;;;5087595;28;20465;-65
2023/12/09 08:27:58;;;;;;;6.10;3.77;;;12.00;90.30;;;;;;5095574;28;20438;-65
2023/12/09 08:30:24;;;;;;;5.23;3.77;;;12.00;90.40;;;;;;5091618;28;20533;-65
2023/12/09 08:32:51;;;;;;;7.93;3.97;;;11.90;90.40;;;;;;5091212;28;20473;-64
2023/12/09 08:35:18;;;;;;;4.93;3.90;;;12.00;90.60;;;;;;5089555;28;20836;-64
2023/12/09 08:37:45;;;;;;;6.30;3.87;;;12.00;90.60;;;;;;5087527;28;20541;-64
2023/12/09 08:40:15;;;;;;;8.23;4.27;;;12.10;90.50;;;;;;5063625;28;20468;-64
2023/12/09 08:42:43;;;;;;;5.23;4.10;;;12.10;90.60;;;;;;5082271;28;20533;-63
2023/12/09 08:45:12;;;;;;;5.27;3.83;;;12.20;90.60;;;;;;5085102;28;20505;-63
2023/12/09 08:47:39;;;;;;;3.53;3.20;;;12.20;90.40;;;;;;5070627;28;20973;-64
2023/12/09 08:50:08;;;;;;;7.40;3.80;;;12.30;90.30;;;;;;5071027;28;20448;-63
2023/12/09 08:52:35;;;;;;;5.30;4.13;;;12.30;90.10;;;;;;5071481;28;20470;-64
2023/12/09 08:55:02;;;;;;;6.37;3.83;;;12.30;90.20;;;;;;5072221;28;20448;-63
2023/12/09 08:57:30;;;;;;;5.40;3.53;;;12.30;90.20;;;;;;5071206;28;21010;-63
2023/12/09 08:59:57;;;;;;;4.27;3.37;;;12.30;90.00;;;;;;5074262;28;20495;-64
2023/12/09 09:02:26;;;;;;;5.50;2.93;;;12.40;90.10;;;;;;5079878;28;20439;-64
2023/12/09 09:04:52;;;;;;;3.87;2.93;;;12.40;89.90;;;;;;5090820;28;20450;-64
2023/12/09 09:07:19;;;;;;;6.13;2.70;;;12.40;89.90;;;;;;5073503;28;20497;-64
2023/12/09 09:09:46;;;;;;;5.20;3.03;;;12.40;89.80;;;;;;5080516;28;20814;-64
2023/12/09 09:12:13;;;;;;;5.90;3.10;;;12.40;89.80;;;;;;5091929;28;20468;-64
2023/12/09 09:14:41;;;;;;;6.77;3.10;;;12.40;89.70;;;;;;5091787;28;20814;-64
2023/12/09 09:17:08;;;;;;;5.60;3.00;;;12.40;89.80;;;;;;5097631;28;20485;-64
2023/12/09 09:19:36;;;;;;;5.20;3.00;;;12.30;89.50;;;;;;5091567;28;20514;-64
2023/12/09 09:22:03;;;;;;;5.77;3.20;;;12.40;90.20;;;;;;5091608;28;20442;-64
2023/12/09 09:24:30;;;;;;;4.27;2.80;;;12.40;90.10;;;;;;5091550;28;20463;-64
2023/12/09 09:26:57;;;;;;;5.67;3.20;;;12.50;90.20;;;;;;5089329;28;20530;-64
2023/12/09 09:29:24;;;;;;;5.53;3.10;;;12.50;90.20;;;;;;5091662;28;20501;-64
2023/12/09 09:31:53;;;;;;;4.43;3.30;;;12.50;90.20;;;;;;5091142;28;20467;-64
2023/12/09 09:34:20;;;;;;;5.17;3.13;;;12.60;90.10;;;;;;5089159;28;20512;-64
2023/12/09 09:36:49;;;;;;;5.77;3.10;;;12.70;89.90;;;;;;5086348;28;20493;-64
2023/12/09 09:39:16;;;;;;;7.80;3.73;;;12.70;89.60;;;;;;5086154;28;20496;-65
2023/12/09 09:42:03;;;;;;;5.37;4.17;;;12.70;89.70;;;;;;5090039;28;20666;-64
2023/12/09 09:44:33;;;;;;;7.77;4.10;;;12.80;89.70;;;;;;5089796;28;20465;-64
2023/12/09 09:47:02;;;;;;;5.23;3.50;;;12.80;89.70;;;;;;5088651;28;20912;-63
2023/12/09 09:49:31;;;;;;;5.77;3.83;;;12.80;88.90;;;;;;5085264;28;20516;-64
2023/12/09 09:52:00;;;;;;;6.50;3.20;;;12.80;88.80;;;;;;5090895;28;20713;-63
2023/12/09 09:54:30;;;;;;;8.13;3.40;;;12.80;89.20;;;;;;5089901;28;20889;-63
2023/12/09 09:56:58;;;;;;;8.00;2.97;;;12.80;89.50;;;;;;5089778;28;20497;-63
2023/12/09 09:59:25;;;;;;;6.43;3.10;;;12.80;89.50;;;;;;5091649;28;20436;-64
2023/12/09 10:01:52;;;;;;;5.70;2.93;;;12.90;89.00;;;;;;5088677;28;20442;-63
2023/12/09 10:04:22;;;;;;;3.40;2.30;;;12.90;88.80;;;;;;5071912;28;20536;-65
2023/12/09 10:06:49;;;;;;;5.87;2.80;;;12.80;88.50;;;;;;5068341;28;20451;-64
2023/12/09 10:09:16;;;;;;;5.70;3.07;;;12.90;88.90;;;;;;5070968;28;20770;-63
2023/12/09 10:11:43;;;;;;;3.63;2.87;;;12.90;89.40;;;;;;5071912;28;20531;-65
2023/12/09 10:14:09;;;;;;;4.37;2.73;;;13.00;89.60;;;;;;5109296;28;20445;-64
2023/12/09 10:16:36;;;;;;;5.33;2.80;;;13.00;89.50;;;;;;5090586;28;20993;-64
2023/12/09 10:19:03;;;;;;;4.93;2.80;;;13.00;89.00;;;;;;5053976;28;20438;-64
2023/12/09 10:21:31;;;;;;;4.87;3.10;;;13.00;89.20;;;;;;5076684;28;21006;-65
2023/12/09 10:23:58;;;;;;;4.83;2.60;;;13.00;89.50;;;;;;5085505;28;20950;-63
2023/12/09 10:26:25;;;;;;;4.83;2.73;;;13.10;90.10;;;;;;5076728;28;20533;-64
2023/12/09 10:28:52;;;;;;;8.50;2.80;;;13.10;89.20;;;;;;5090281;28;20553;-64
2023/12/09 10:31:19;;;;;;;2.83;2.30;;;13.20;89.40;;;;;;5091131;28;20660;-64
2023/12/09 10:33:46;;;;;;;6.90;2.80;;;13.20;89.70;;;;;;5090033;28;20871;-65
2023/12/09 10:36:13;;;;;;;5.00;3.10;;;13.20;89.90;;;;;;5088050;28;20508;-64
2023/12/09 10:38:43;;;;;;;4.43;2.90;;;13.20;89.70;;;;;;5038507;28;20453;-64
2023/12/09 10:41:16;;;;;;;4.40;3.23;;;13.20;89.40;;;;;;5085208;28;20467;-63
2023/12/09 10:43:43;;;;;;;4.80;2.97;;;13.30;89.00;;;;;;5081131;28;20566;-64
2023/12/09 10:46:10;;;;;;;7.20;3.10;;;13.30;88.80;;;;;;5086296;28;20508;-65
2023/12/09 10:48:37;;;;;;;5.80;2.97;;;13.30;88.40;;;;;;5093725;28;20477;-64
2023/12/09 10:51:04;;;;;;;7.40;3.40;;;13.30;88.50;;;;;;5052956;28;20926;-64
2023/12/09 10:53:31;;;;;;;4.33;2.67;;;13.30;88.40;;;;;;5090143;28;20569;-64
2023/12/09 10:56:03;;;;;;;3.70;2.77;;;13.30;88.50;;;;;;5074222;28;20513;-65
2023/12/09 10:58:32;;;;;;;5.47;3.10;;;13.30;88.50;;;;;;5070252;28;20474;-64
2023/12/09 11:01:00;;;;;;;4.93;2.73;;;13.30;88.80;;;;;;5083379;28;20845;-64
2023/12/09 11:03:28;;;;;;;5.37;2.57;;;13.20;89.00;;;;;;5090561;28;20466;-64
2023/12/09 11:05:58;;;;;;;5.10;2.70;;;13.20;89.00;;;;;;5074085;28;20447;-64
2023/12/09 11:08:28;;;;;;;7.10;2.73;;;13.30;89.30;;;;;;5089801;28;20533;-64
2023/12/09 11:10:55;;;;;;;5.77;2.77;;;13.30;89.30;;;;;;5080500;28;20534;-64
2023/12/09 11:13:29;;;;;;;6.20;3.00;;;13.30;89.30;;;;;;5069839;28;20453;-63
2023/12/09 11:16:11;;;;;;;5.30;2.90;;;13.30;88.80;;;;;;5082323;28;20856;-63
2023/12/09 11:18:51;;;;;;;5.37;2.60;;;13.30;88.60;;;;;;5069039;28;20478;-64
2023/12/09 11:21:19;;;;;;;5.67;2.50;;;13.30;88.70;;;;;;5073264;28;20502;-65
2023/12/09 11:23:48;;;;;;;5.47;2.70;;;13.30;88.90;;;;;;5091857;28;20998;-64
2023/12/09 11:26:17;;;;;;;5.07;3.60;;;13.30;89.00;;;;;;5093500;28;20438;-64
2023/12/09 11:29:03;;;;;;;7.37;4.20;;;13.40;88.60;;;;;;5092501;28;20549;-64
2023/12/09 11:31:37;;;;;;;6.17;3.60;;;13.40;88.20;;;;;;5093317;28;20446;-64
2023/12/09 11:34:06;;;;;;;5.97;3.30;;;13.40;88.30;;;;;;5090598;28;20515;-64
2023/12/09 11:36:35;;;;;;;5.70;3.00;;;13.50;88.40;;;;;;5091998;28;20510;-64
2023/12/09 11:39:11;;;;;;;3.63;2.60;;;13.50;88.00;;;;;;5093709;28;20450;-64
2023/12/09 11:41:38;;;;;;;7.27;3.10;;;13.50;88.20;;;;;;5081050;28;20463;-64
2023/12/09 11:44:07;;;;;;;5.50;2.90;;;13.50;88.30;;;;;;5090861;28;20467;-65
2023/12/09 11:46:36;;;;;;;4.23;2.93;;;13.50;88.00;;;;;;5083625;28;20459;-64
2023/12/09 11:49:04;;;;;;;5.07;2.97;;;13.50;87.30;;;;;;5079783;28;20470;-64
2023/12/09 11:51:33;;;;;;;4.70;2.30;;;13.50;87.40;;;;;;5080145;28;20562;-64
2023/12/09 11:54:02;;;;;;;3.93;2.50;;;13.50;87.20;;;;;;5073614;28;20447;-64
2023/12/09 11:56:29;;;;;;;4.93;2.80;;;13.50;87.20;;;;;;5073174;28;20483;-64
2023/12/09 11:58:56;;;;;;;5.63;2.63;;;13.50;87.50;;;;;;5074273;28;20467;-64
2023/12/09 12:01:27;;;;;;;2.60;2.23;;;13.60;87.50;;;;;;5083239;28;20509;-64
2023/12/09 12:03:55;;;;;;;3.07;2.47;;;13.60;87.30;;;;;;5102228;28;20450;-64
2023/12/09 12:06:23;;;;;;;2.97;2.20;;;13.70;87.20;;;;;;5084847;28;20451;-62
2023/12/09 12:08:51;;;;;;;2.90;2.27;;;14.00;87.30;;;;;;5110214;28;20514;-64
2023/12/09 12:11:20;;;;;;;4.47;2.40;;;14.20;87.00;;;;;;5113602;28;20448;-64
2023/12/09 12:13:47;;;;;;;3.40;2.43;;;14.60;86.30;;;;;;5113866;28;20886;-64
2023/12/09 12:16:14;;;;;;;5.53;2.50;;;14.90;85.90;;;;;;5113455;28;20477;-65
2023/12/09 12:18:43;;;;;;;5.80;2.67;;;15.00;85.20;;;;;;5113993;28;20437;-64
2023/12/09 12:21:09;;;;;;;2.40;1.90;;;15.20;84.00;;;;;;5090337;28;20585;-64
2023/12/09 12:23:38;;;;;;;3.00;2.20;;;15.30;83.30;;;;;;5077181;28;20506;-64
2023/12/09 12:26:08;;;;;;;5.70;2.27;;;15.40;83.20;;;;;;5096858;28;20863;-64
2023/12/09 12:28:35;;;;;;;4.17;2.30;;;15.30;82.90;;;;;;5097406;28;20951;-64
2023/12/09 12:31:03;;;;;;;2.37;2.10;;;15.20;82.70;;;;;;5080355;28;20479;-64
2023/12/09 12:33:31;;;;;;;3.10;2.70;;;15.10;83.70;;;;;;5079321;28;20810;-63
2023/12/09 12:36:00;;;;;;;2.27;2.07;;;15.00;83.80;;;;;;5093576;28;20469;-63
2023/12/09 12:38:28;;;;;;;3.57;2.70;;;14.90;83.80;;;;;;5091285;28;20492;-64